Dodd City, Texas
Current Conditions -  °F | °C
As of 6:35 PM on Saturday 22 Nov 2014 (Local Time) from KDUA Reporting Station
Drizzle Drizzle  
Wind Chill: 55°   Ceiling: 1800
Heat Index: 55°   Visibility: 5mi
Dew Point: 55°   Wind: 5mph
Humidity: 100%   Direction: 100°E
Pressure: 29.87"   Gusts: NA
Location:  33.58°N, 96.07°W
Report Text: KDUA 230035Z AUTO 10004KT 5SM DZ SCT004 BKN018 OVC024 13/13 A2987 RMK AO2
Loading
Personal Weather Stations






























Interactive Weather Map New forecast layout! Learn more

10-Day Weather Forecast

Advertisements
Track Severe Weather on mobile